createdAt,value
2023-06-04T00:02:14.924Z,7.76
2023-06-04T00:04:41.532Z,7.75
2023-06-04T00:07:08.037Z,7.79
2023-06-04T00:09:34.562Z,7.79
2023-06-04T00:12:01.070Z,7.71
2023-06-04T00:14:27.536Z,7.72
2023-06-04T00:16:54.013Z,7.70
2023-06-04T00:19:20.595Z,7.57
2023-06-04T00:21:47.049Z,7.56
2023-06-04T00:24:14.074Z,7.46
2023-06-04T00:26:40.786Z,7.50
2023-06-04T00:29:07.231Z,7.55
2023-06-04T00:31:33.937Z,7.46
2023-06-04T00:34:00.415Z,7.39
2023-06-04T00:36:26.881Z,7.42
2023-06-04T00:38:53.372Z,7.47
2023-06-04T00:41:19.856Z,7.28
2023-06-04T00:43:46.276Z,7.19
2023-06-04T00:46:13.050Z,7.16
2023-06-04T00:48:39.800Z,7.12
2023-06-04T00:51:06.475Z,6.98
2023-06-04T00:53:33.187Z,6.90
2023-06-04T00:55:59.654Z,6.74
2023-06-04T00:58:26.118Z,6.90
2023-06-04T01:00:52.622Z,6.89
2023-06-04T01:03:19.860Z,6.87
2023-06-04T01:05:51.743Z,6.80
2023-06-04T01:08:18.890Z,6.78
2023-06-04T01:10:55.020Z,6.74
2023-06-04T01:13:21.488Z,6.78
2023-06-04T01:15:47.941Z,6.63
2023-06-04T01:18:15.947Z,6.59
2023-06-04T01:20:45.814Z,6.61
2023-06-04T01:23:12.247Z,6.59
2023-06-04T01:25:42.137Z,6.60
2023-06-04T01:28:08.692Z,6.61
2023-06-04T01:30:35.655Z,6.54
2023-06-04T01:33:02.374Z,6.45
2023-06-04T01:35:29.260Z,6.31
2023-06-04T01:37:56.073Z,6.33
2023-06-04T01:40:23.482Z,6.44
2023-06-04T01:42:49.926Z,6.38
2023-06-04T01:45:16.345Z,6.40
2023-06-04T01:47:42.835Z,6.37
2023-06-04T01:50:09.662Z,6.32
2023-06-04T01:52:36.720Z,6.15
2023-06-04T01:55:06.926Z,6.11
2023-06-04T01:57:33.396Z,6.05
2023-06-04T01:59:59.847Z,6.14
2023-06-04T02:02:26.316Z,6.13
2023-06-04T02:04:52.929Z,6.06
2023-06-04T02:07:19.636Z,5.93
2023-06-04T02:09:48.515Z,5.93
2023-06-04T02:12:15.082Z,6.02
2023-06-04T02:14:41.647Z,5.92
2023-06-04T02:17:08.113Z,5.90
2023-06-04T02:19:34.601Z,5.91
2023-06-04T02:22:01.079Z,5.82
2023-06-04T02:24:27.666Z,5.79
2023-06-04T02:26:54.148Z,5.82
2023-06-04T02:29:21.157Z,5.77
2023-06-04T02:31:47.729Z,5.72
2023-06-04T02:34:14.210Z,5.67
2023-06-04T02:36:40.750Z,5.61
2023-06-04T02:39:07.184Z,5.62
2023-06-04T02:41:33.671Z,5.56
2023-06-04T02:44:00.168Z,5.51
2023-06-04T02:46:26.765Z,5.54
2023-06-04T02:48:53.526Z,5.52
2023-06-04T02:51:19.964Z,5.41
2023-06-04T02:53:46.499Z,5.40
2023-06-04T02:56:12.985Z,5.51
2023-06-04T02:58:49.274Z,5.46
2023-06-04T03:01:19.515Z,5.43
2023-06-04T03:03:46.117Z,5.37
2023-06-04T03:06:12.720Z,5.31
2023-06-04T03:08:39.255Z,5.37
2023-06-04T03:11:06.260Z,5.38
2023-06-04T03:13:33.094Z,5.31
2023-06-04T03:15:59.620Z,5.18
2023-06-04T03:18:26.143Z,5.15
2023-06-04T03:20:52.686Z,5.22
2023-06-04T03:23:19.191Z,5.18
2023-06-04T03:25:45.652Z,5.15
2023-06-04T03:28:12.099Z,5.27
2023-06-04T03:30:38.593Z,5.26
2023-06-04T03:33:05.119Z,5.12
2023-06-04T03:35:31.694Z,5.21
2023-06-04T03:37:58.177Z,5.25
2023-06-04T03:40:24.654Z,5.25
2023-06-04T03:42:51.084Z,5.30
2023-06-04T03:45:17.587Z,5.41
2023-06-04T03:47:44.084Z,5.37
2023-06-04T03:50:10.777Z,5.33
2023-06-04T03:52:37.247Z,5.35
2023-06-04T03:55:03.797Z,5.40
2023-06-04T03:57:30.529Z,5.41
2023-06-04T03:59:57.027Z,5.23
2023-06-04T04:02:23.530Z,5.28
2023-06-04T04:04:50.048Z,5.41
2023-06-04T04:07:16.523Z,5.42
2023-06-04T04:09:43.008Z,5.45
2023-06-04T04:12:09.458Z,5.36
2023-06-04T04:14:35.959Z,5.44
2023-06-04T04:17:02.491Z,5.53
2023-06-04T04:19:28.976Z,5.61
2023-06-04T04:21:55.508Z,5.69
2023-06-04T04:24:24.917Z,5.85
2023-06-04T04:26:51.479Z,5.84
2023-06-04T04:29:17.971Z,5.80
2023-06-04T04:31:44.558Z,5.83
2023-06-04T04:34:11.126Z,5.95
2023-06-04T04:36:37.650Z,6.06
2023-06-04T04:39:04.135Z,6.12
2023-06-04T04:41:30.630Z,6.24
2023-06-04T04:44:03.415Z,6.28
2023-06-04T04:46:30.119Z,6.38
2023-06-04T04:48:56.600Z,6.41
2023-06-04T04:51:23.077Z,6.46
2023-06-04T04:53:49.594Z,6.57
2023-06-04T04:56:16.049Z,6.62
2023-06-04T04:58:42.506Z,6.68
2023-06-04T05:01:09.209Z,6.75
2023-06-04T05:03:35.920Z,6.83
2023-06-04T05:06:02.532Z,6.95
2023-06-04T05:08:29.457Z,7.08
2023-06-04T05:10:55.906Z,7.11
2023-06-04T05:13:22.401Z,7.18
2023-06-04T05:15:48.923Z,7.31
2023-06-04T05:18:15.520Z,7.50
2023-06-04T05:20:42.084Z,7.50
2023-06-04T05:23:08.555Z,7.54
2023-06-04T05:25:35.020Z,7.62
2023-06-04T05:28:01.875Z,7.71
2023-06-04T05:30:28.338Z,7.78
2023-06-04T05:32:54.952Z,7.90
2023-06-04T05:35:21.518Z,8.01
2023-06-04T05:37:48.179Z,8.05
2023-06-04T05:40:14.721Z,8.19
2023-06-04T05:42:41.851Z,8.29
2023-06-04T05:45:08.578Z,8.39
2023-06-04T05:47:35.196Z,8.46
2023-06-04T05:50:01.645Z,8.55
2023-06-04T05:52:28.091Z,8.63
2023-06-04T05:54:54.653Z,8.74
2023-06-04T05:57:21.392Z,8.85
2023-06-04T05:59:47.900Z,8.96
2023-06-04T06:02:14.413Z,9.02
2023-06-04T06:04:40.998Z,9.12
2023-06-04T06:07:07.932Z,9.18
2023-06-04T06:09:34.477Z,9.33
2023-06-04T06:12:00.949Z,9.45
2023-06-04T06:14:27.507Z,9.58
2023-06-04T06:16:53.965Z,9.68
2023-06-04T06:19:20.596Z,9.81
2023-06-04T06:21:47.099Z,9.80
2023-06-04T06:24:13.562Z,10.11
2023-06-04T06:26:40.020Z,10.13
2023-06-04T06:29:06.608Z,10.30
2023-06-04T06:31:33.672Z,10.37
2023-06-04T06:34:00.193Z,10.50
2023-06-04T06:36:26.697Z,10.66
2023-06-04T06:38:53.433Z,10.88
2023-06-04T06:41:19.910Z,11.20
2023-06-04T06:43:46.508Z,11.70
2023-06-04T06:46:12.967Z,12.07
2023-06-04T06:48:39.413Z,12.41
2023-06-04T06:51:06.107Z,12.77
2023-06-04T06:53:32.834Z,13.39
2023-06-04T06:55:59.308Z,13.86
2023-06-04T06:58:26.006Z,14.28
2023-06-04T07:00:52.536Z,14.55
2023-06-04T07:03:19.075Z,14.96
2023-06-04T07:05:45.708Z,15.32
2023-06-04T07:08:12.131Z,15.93
2023-06-04T07:10:38.576Z,16.95
2023-06-04T07:13:05.137Z,17.08
2023-06-04T07:15:31.621Z,17.19
2023-06-04T07:17:58.143Z,18.10
2023-06-04T07:20:24.738Z,18.64
2023-06-04T07:22:51.208Z,19.19
2023-06-04T07:25:17.741Z,19.49
2023-06-04T07:27:44.740Z,19.72
2023-06-04T07:30:11.261Z,19.73
2023-06-04T07:32:37.803Z,20.20
2023-06-04T07:35:04.383Z,20.44
2023-06-04T07:37:30.892Z,20.83
2023-06-04T07:39:57.387Z,21.04
2023-06-04T07:42:23.917Z,21.21
2023-06-04T07:44:50.370Z,21.76
2023-06-04T07:47:16.798Z,21.95
2023-06-04T07:49:54.399Z,22.09
2023-06-04T07:52:24.717Z,22.00
2023-06-04T07:54:51.229Z,22.69
2023-06-04T07:57:17.670Z,22.97
2023-06-04T07:59:44.127Z,22.87
2023-06-04T08:02:10.717Z,22.66
2023-06-04T08:04:37.229Z,23.47
2023-06-04T08:07:04.164Z,23.47
2023-06-04T08:09:30.674Z,23.29
2023-06-04T08:11:57.193Z,23.61
2023-06-04T08:14:23.733Z,24.11
2023-06-04T08:16:50.334Z,24.30
2023-06-04T08:19:17.266Z,24.38
2023-06-04T08:21:43.703Z,24.14
2023-06-04T08:24:10.265Z,24.23
2023-06-04T08:26:37.047Z,24.21
2023-06-04T08:29:03.809Z,24.30
2023-06-04T08:31:30.444Z,24.42
2023-06-04T08:33:56.980Z,25.07
2023-06-04T08:36:23.474Z,25.19
2023-06-04T08:38:52.420Z,25.45
2023-06-04T08:41:21.547Z,24.92
2023-06-04T08:43:48.292Z,25.61
2023-06-04T08:46:15.470Z,25.37
2023-06-04T08:48:41.963Z,25.54
2023-06-04T08:51:08.692Z,25.79
2023-06-04T08:53:35.609Z,26.22
2023-06-04T08:56:02.135Z,25.46
2023-06-04T08:58:29.073Z,26.01
2023-06-04T09:00:55.566Z,25.88
2023-06-04T09:03:22.417Z,26.83
2023-06-04T09:05:48.952Z,26.55
2023-06-04T09:08:15.652Z,26.43
2023-06-04T09:10:42.232Z,26.16
2023-06-04T09:13:08.796Z,26.50
2023-06-04T09:15:35.332Z,25.85
2023-06-04T09:18:01.972Z,26.41
2023-06-04T09:20:28.905Z,25.86
2023-06-04T09:22:55.384Z,26.23
2023-06-04T09:25:22.736Z,25.75
2023-06-04T09:27:49.256Z,26.13
2023-06-04T09:30:15.856Z,27.09
2023-06-04T09:32:42.420Z,26.95
2023-06-04T09:35:09.818Z,26.81
2023-06-04T09:37:36.648Z,26.44
2023-06-04T09:40:03.182Z,26.67
2023-06-04T09:42:29.655Z,27.55
2023-06-04T09:44:56.142Z,27.55
2023-06-04T09:47:22.563Z,26.88
2023-06-04T09:49:50.142Z,27.08
2023-06-04T09:52:17.506Z,27.32
2023-06-04T09:54:43.956Z,28.05
2023-06-04T09:57:17.075Z,27.54
2023-06-04T09:59:47.305Z,28.00
2023-06-04T10:02:14.225Z,27.29
2023-06-04T10:04:43.640Z,27.48
2023-06-04T10:07:10.490Z,25.33
2023-06-04T10:09:37.604Z,26.72
2023-06-04T10:12:04.081Z,27.27
2023-06-04T10:14:33.270Z,27.51
2023-06-04T10:16:59.790Z,27.47
2023-06-04T10:19:26.613Z,26.94
2023-06-04T10:21:53.570Z,26.89
2023-06-04T10:24:19.991Z,27.48
2023-06-04T10:26:46.488Z,26.82
2023-06-04T10:29:13.146Z,27.53
2023-06-04T10:31:39.625Z,27.84
2023-06-04T10:34:06.132Z,27.24
2023-06-04T10:36:32.728Z,26.98
2023-06-04T10:38:59.224Z,27.79
2023-06-04T10:41:25.766Z,26.04
2023-06-04T10:43:53.102Z,25.98
2023-06-04T10:46:20.976Z,26.86
2023-06-04T10:48:50.931Z,27.47
2023-06-04T10:51:17.841Z,27.42
2023-06-04T10:53:44.277Z,27.16
2023-06-04T10:56:10.697Z,27.09
2023-06-04T10:58:37.235Z,27.29
2023-06-04T11:01:03.736Z,26.78
2023-06-04T11:03:37.124Z,26.38
2023-06-04T11:06:03.726Z,24.86
2023-06-04T11:08:30.468Z,25.41
2023-06-04T11:10:57.152Z,25.30
2023-06-04T11:13:26.648Z,25.85
2023-06-04T11:15:53.173Z,26.40
2023-06-04T11:18:20.261Z,26.44
2023-06-04T11:20:50.328Z,25.73
2023-06-04T11:23:16.982Z,25.75
2023-06-04T11:25:43.749Z,25.82
2023-06-04T11:28:16.804Z,25.54
2023-06-04T11:30:43.234Z,25.71
2023-06-04T11:33:09.866Z,25.18
2023-06-04T11:35:42.847Z,25.64
2023-06-04T11:38:10.420Z,25.30
2023-06-04T11:40:37.197Z,25.13
2023-06-04T11:43:03.756Z,24.82
2023-06-04T11:45:30.272Z,24.41
2023-06-04T11:47:57.299Z,24.61
2023-06-04T11:50:29.997Z,23.81
2023-06-04T11:52:56.654Z,24.35
2023-06-04T11:55:23.135Z,24.40
2023-06-04T11:57:52.887Z,24.44
2023-06-04T12:00:19.653Z,24.35
2023-06-04T12:02:53.554Z,24.55
2023-06-04T12:05:20.709Z,24.80
2023-06-04T12:07:53.154Z,24.72
2023-06-04T12:10:20.168Z,24.71
2023-06-04T12:12:46.891Z,24.52
2023-06-04T12:15:13.474Z,23.93
2023-06-04T12:17:55.665Z,24.22
2023-06-04T12:20:33.049Z,23.99
2023-06-04T12:22:59.612Z,24.08
2023-06-04T12:25:26.434Z,24.13
2023-06-04T12:27:52.893Z,23.40
2023-06-04T12:30:19.371Z,23.64
2023-06-04T12:32:45.892Z,24.13
2023-06-04T12:35:12.430Z,23.97
2023-06-04T12:37:38.937Z,23.87
2023-06-04T12:40:05.692Z,24.01
2023-06-04T12:42:32.198Z,24.08
2023-06-04T12:44:58.723Z,23.98
2023-06-04T12:47:25.209Z,23.86
2023-06-04T12:49:51.707Z,23.63
2023-06-04T12:52:18.356Z,23.71
2023-06-04T12:54:44.862Z,23.62
2023-06-04T12:57:11.284Z,23.09
2023-06-04T12:59:37.857Z,23.29
2023-06-04T13:02:04.388Z,23.49
2023-06-04T13:04:30.891Z,23.35
2023-06-04T13:06:57.412Z,23.17
2023-06-04T13:09:23.895Z,23.61
2023-06-04T13:11:50.372Z,23.75
2023-06-04T13:14:17.054Z,23.48
2023-06-04T13:16:43.597Z,23.41
2023-06-04T13:19:10.137Z,23.43
2023-06-04T13:21:36.663Z,23.31
2023-06-04T13:24:03.599Z,23.60
2023-06-04T13:26:30.108Z,23.33
2023-06-04T13:28:56.715Z,23.13
2023-06-04T13:31:23.305Z,22.82
2023-06-04T13:33:50.205Z,22.86
2023-06-04T13:36:16.673Z,23.15
2023-06-04T13:38:43.219Z,23.27
2023-06-04T13:41:09.849Z,23.68
2023-06-04T13:43:36.461Z,23.94
2023-06-04T13:46:03.004Z,23.88
2023-06-04T13:48:29.523Z,23.89
2023-06-04T13:50:55.993Z,23.29
2023-06-04T13:53:22.709Z,23.43
2023-06-04T13:55:49.158Z,23.75
2023-06-04T13:58:16.137Z,23.77
2023-06-04T14:00:42.585Z,23.62
2023-06-04T14:03:09.272Z,23.68
2023-06-04T14:05:35.889Z,23.79
2023-06-04T14:08:02.295Z,24.05
2023-06-04T14:10:28.793Z,24.19
2023-06-04T14:12:55.450Z,23.76
2023-06-04T14:15:21.919Z,23.42
2023-06-04T14:17:48.577Z,23.16
2023-06-04T14:20:15.168Z,23.20
2023-06-04T14:22:41.607Z,23.30
2023-06-04T14:25:08.224Z,23.42
2023-06-04T14:27:34.881Z,23.58
2023-06-04T14:30:02.029Z,23.57
2023-06-04T14:32:28.533Z,23.99
2023-06-04T14:34:55.222Z,24.07
2023-06-04T14:37:21.654Z,23.77
2023-06-04T14:39:48.290Z,23.69
2023-06-04T14:42:14.851Z,22.86
2023-06-04T14:44:41.345Z,23.12
2023-06-04T14:47:07.794Z,23.38
2023-06-04T14:49:35.918Z,23.17
2023-06-04T14:52:02.382Z,23.28
2023-06-04T14:54:28.964Z,23.41
2023-06-04T14:56:55.590Z,23.13
2023-06-04T14:59:22.029Z,22.77
2023-06-04T15:01:48.638Z,22.65
2023-06-04T15:04:16.148Z,22.47
2023-06-04T15:06:42.964Z,22.27
2023-06-04T15:09:09.473Z,22.35
2023-06-04T15:11:35.993Z,22.50
2023-06-04T15:14:02.931Z,22.55
2023-06-04T15:16:29.562Z,22.68
2023-06-04T15:18:56.121Z,22.60
2023-06-04T15:21:22.815Z,22.49
2023-06-04T15:23:49.507Z,22.54
2023-06-04T15:26:16.757Z,22.41
2023-06-04T15:28:43.233Z,22.35
2023-06-04T15:31:09.990Z,22.62
2023-06-04T15:33:36.604Z,22.53
2023-06-04T15:36:03.906Z,21.99
2023-06-04T15:38:31.969Z,22.06
2023-06-04T15:40:58.736Z,22.15
2023-06-04T15:43:25.254Z,22.43
2023-06-04T15:45:51.793Z,22.45
2023-06-04T15:48:18.296Z,22.05
2023-06-04T15:50:44.853Z,21.73
2023-06-04T15:53:11.349Z,21.76
2023-06-04T15:55:37.786Z,21.67
2023-06-04T15:58:04.332Z,21.57
2023-06-04T16:00:31.904Z,21.63
2023-06-04T16:02:58.485Z,21.67
2023-06-04T16:05:25.078Z,21.70
2023-06-04T16:07:51.810Z,21.87
2023-06-04T16:10:18.299Z,21.94
2023-06-04T16:12:44.875Z,22.08
2023-06-04T16:15:11.940Z,22.13
2023-06-04T16:17:38.415Z,22.01
2023-06-04T16:20:05.177Z,22.04
2023-06-04T16:22:32.004Z,22.13
2023-06-04T16:24:58.655Z,21.84
2023-06-04T16:27:25.117Z,21.68
2023-06-04T16:29:51.631Z,21.45
2023-06-04T16:32:18.507Z,21.18
2023-06-04T16:34:45.064Z,21.20
2023-06-04T16:37:11.639Z,21.29
2023-06-04T16:39:38.155Z,21.40
2023-06-04T16:42:04.871Z,21.37
2023-06-04T16:44:31.434Z,21.33
2023-06-04T16:46:57.938Z,21.24
2023-06-04T16:49:24.467Z,21.16
2023-06-04T16:51:50.971Z,21.21
2023-06-04T16:54:17.398Z,21.30
2023-06-04T16:56:43.846Z,20.92
2023-06-04T16:59:10.432Z,20.89
2023-06-04T17:01:37.020Z,20.68
2023-06-04T17:04:03.577Z,20.75
2023-06-04T17:06:30.138Z,20.76
2023-06-04T17:08:56.755Z,20.65
2023-06-04T17:11:23.206Z,20.67
2023-06-04T17:13:49.696Z,20.50
2023-06-04T17:16:16.184Z,20.58
2023-06-04T17:18:42.651Z,20.47
2023-06-04T17:21:09.191Z,20.52
2023-06-04T17:23:35.681Z,20.46
2023-06-04T17:26:02.127Z,20.50
2023-06-04T17:28:28.649Z,20.30
2023-06-04T17:30:55.186Z,20.18
2023-06-04T17:33:21.723Z,20.08
2023-06-04T17:35:48.294Z,19.93
2023-06-04T17:38:14.733Z,19.84
2023-06-04T17:40:41.237Z,19.79
2023-06-04T17:43:07.754Z,19.69
2023-06-04T17:45:34.205Z,19.55
2023-06-04T17:48:00.728Z,19.45
2023-06-04T17:50:27.537Z,19.48
2023-06-04T17:52:54.012Z,19.30
2023-06-04T17:55:20.569Z,19.23
2023-06-04T17:57:47.109Z,19.14
2023-06-04T18:00:13.887Z,19.09
2023-06-04T18:02:40.725Z,19.00
2023-06-04T18:05:08.063Z,18.94
2023-06-04T18:07:34.559Z,18.89
2023-06-04T18:10:01.174Z,18.78
2023-06-04T18:12:28.146Z,18.69
2023-06-04T18:14:54.611Z,18.73
2023-06-04T18:17:21.624Z,18.67
2023-06-04T18:19:48.112Z,18.48
2023-06-04T18:22:14.615Z,18.33
2023-06-04T18:24:41.252Z,18.33
2023-06-04T18:27:07.793Z,18.28
2023-06-04T18:29:34.295Z,18.35
2023-06-04T18:32:00.989Z,18.22
2023-06-04T18:34:27.619Z,17.87
2023-06-04T18:36:54.111Z,18.01
2023-06-04T18:39:23.719Z,18.01
2023-06-04T18:41:50.306Z,17.98
2023-06-04T18:44:16.992Z,18.01
2023-06-04T18:46:43.448Z,17.83
2023-06-04T18:49:10.377Z,17.66
2023-06-04T18:51:36.790Z,17.46
2023-06-04T18:54:03.752Z,17.44
2023-06-04T18:56:30.238Z,17.15
2023-06-04T18:58:56.835Z,17.18
2023-06-04T19:01:23.358Z,17.05
2023-06-04T19:03:49.947Z,17.09
2023-06-04T19:06:16.485Z,16.96
2023-06-04T19:08:42.982Z,16.99
2023-06-04T19:11:09.452Z,16.93
2023-06-04T19:13:35.959Z,16.92
2023-06-04T19:16:02.656Z,16.86
2023-06-04T19:18:29.549Z,16.71
2023-06-04T19:20:56.051Z,16.38
2023-06-04T19:23:22.616Z,16.21
2023-06-04T19:25:49.231Z,16.17
2023-06-04T19:28:15.738Z,16.23
2023-06-04T19:30:42.797Z,16.07
2023-06-04T19:33:09.338Z,16.03
2023-06-04T19:35:35.853Z,15.88
2023-06-04T19:38:02.345Z,15.87
2023-06-04T19:40:28.819Z,15.87
2023-06-04T19:42:55.250Z,15.71
2023-06-04T19:45:21.760Z,15.66
2023-06-04T19:47:48.370Z,15.63
2023-06-04T19:50:14.821Z,15.61
2023-06-04T19:52:41.383Z,15.46
2023-06-04T19:55:08.138Z,15.41
2023-06-04T19:57:34.609Z,15.45
2023-06-04T20:00:01.259Z,15.27
2023-06-04T20:02:28.108Z,15.20
2023-06-04T20:04:54.557Z,15.29
2023-06-04T20:07:21.046Z,15.18
2023-06-04T20:09:47.566Z,15.20
2023-06-04T20:12:14.291Z,15.06
2023-06-04T20:14:41.218Z,15.13
2023-06-04T20:17:07.792Z,15.05
2023-06-04T20:19:34.340Z,14.79
2023-06-04T20:22:00.817Z,14.78
2023-06-04T20:24:27.368Z,14.78
2023-06-04T20:26:53.834Z,14.59
2023-06-04T20:29:20.258Z,14.72
2023-06-04T20:31:46.829Z,14.76
2023-06-04T20:34:13.348Z,14.73
2023-06-04T20:36:39.943Z,14.60
2023-06-04T20:39:06.573Z,14.52
2023-06-04T20:41:33.082Z,14.68
2023-06-04T20:43:59.542Z,14.66
2023-06-04T20:46:26.067Z,14.73
2023-06-04T20:48:52.618Z,14.75
2023-06-04T20:51:19.154Z,14.70
2023-06-04T20:53:49.099Z,14.59
2023-06-04T20:56:15.899Z,14.66
2023-06-04T20:58:42.432Z,14.51
2023-06-04T21:01:08.981Z,14.50
2023-06-04T21:03:35.614Z,14.55
2023-06-04T21:06:02.166Z,14.59
2023-06-04T21:08:28.691Z,14.77
2023-06-04T21:10:55.142Z,14.93
2023-06-04T21:13:21.712Z,14.92
2023-06-04T21:15:48.233Z,14.99
2023-06-04T21:18:15.024Z,15.11
2023-06-04T21:20:41.478Z,15.12
2023-06-04T21:23:08.077Z,15.15
2023-06-04T21:25:34.554Z,15.04
2023-06-04T21:28:01.069Z,15.08
2023-06-04T21:30:27.665Z,15.21
2023-06-04T21:32:54.182Z,15.05
2023-06-04T21:35:20.885Z,15.20
2023-06-04T21:37:47.455Z,15.26
2023-06-04T21:40:13.948Z,15.28
2023-06-04T21:42:40.552Z,15.31
2023-06-04T21:45:07.768Z,15.28
2023-06-04T21:47:34.716Z,15.30
2023-06-04T21:50:01.205Z,15.18
2023-06-04T21:52:27.711Z,15.24
2023-06-04T21:54:54.184Z,15.18
2023-06-04T21:57:20.626Z,15.21
2023-06-04T21:59:47.114Z,15.08
2023-06-04T22:02:13.642Z,15.08
2023-06-04T22:04:40.181Z,15.04
2023-06-04T22:07:06.674Z,15.09
2023-06-04T22:09:33.102Z,15.07
2023-06-04T22:11:59.630Z,14.94
2023-06-04T22:14:26.100Z,14.95
2023-06-04T22:16:52.533Z,14.91
2023-06-04T22:19:19.174Z,14.88
2023-06-04T22:21:45.743Z,14.95
2023-06-04T22:24:12.296Z,14.96
2023-06-04T22:26:39.090Z,15.02
2023-06-04T22:29:05.641Z,14.93
2023-06-04T22:31:32.300Z,14.79
2023-06-04T22:33:58.792Z,14.76
2023-06-04T22:36:25.438Z,14.76
2023-06-04T22:38:51.923Z,14.61
2023-06-04T22:41:18.390Z,14.38
2023-06-04T22:43:45.018Z,14.53
2023-06-04T22:46:11.591Z,14.34
2023-06-04T22:48:38.159Z,14.24
2023-06-04T22:51:04.704Z,14.31
2023-06-04T22:53:31.403Z,14.20
2023-06-04T22:55:57.961Z,14.09
2023-06-04T22:58:24.477Z,14.17
2023-06-04T23:00:50.962Z,14.06
2023-06-04T23:03:17.637Z,14.04
2023-06-04T23:05:44.363Z,14.03
2023-06-04T23:08:10.807Z,13.99
2023-06-04T23:10:37.316Z,13.95
2023-06-04T23:13:03.875Z,13.84
2023-06-04T23:15:30.296Z,13.86
2023-06-04T23:17:56.871Z,13.80
2023-06-04T23:20:23.494Z,13.73
2023-06-04T23:22:49.981Z,13.63
2023-06-04T23:25:16.460Z,13.67
2023-06-04T23:27:43.181Z,13.53
2023-06-04T23:30:09.996Z,13.61
2023-06-04T23:32:36.573Z,13.64
2023-06-04T23:35:03.143Z,13.55
2023-06-04T23:37:29.559Z,13.52
2023-06-04T23:39:56.019Z,13.54
2023-06-04T23:42:22.743Z,13.52
2023-06-04T23:44:49.261Z,13.47
2023-06-04T23:47:15.721Z,13.39
2023-06-04T23:49:42.221Z,13.33
2023-06-04T23:52:08.939Z,13.28
2023-06-04T23:54:35.432Z,13.16
2023-06-04T23:57:02.058Z,13.12
2023-06-04T23:59:28.529Z,12.97
